aviador You're here:

KMSP Decoded Metar

MINNEAPOLIS in MN, USA
Report Time2017-07-22 23:53:00
UTC Time2017-07-23 00:54:11
Flight Rules vfr VFR
Wind320° at 09 kt
W.Decomp.*RWY 30: 8.5 kt HW 3.1 kt RCW
RWY 35: 7.8 kt HW 4.5 kt LCW
RWY 04: 1.6 kt HW 8.9 kt LCW
W.Rank320° ranks 5
Current wind is below 320° avg. (9.9)
Visibility9999 m
Phenomena:N/A
Clouds:Scattered 065 Hf
Scattered 250 Hf
Expected CloudBase > 5,600 ft AGL from Temp-Dew spread
CeilingNone
Temp31°C (ISA +18)
Dew Point17°C (43% RH)
Heat Index31.4°C
AAT30.1°C
QNH1009 hPa
Density Alt3,287 ft
Elevation869 ft
Report Wrong Elevation
Raw Report
KMSP 222353Z 32009KT 10SM SCT065 SCT250 31/17 A2981 RMK AO2 SLP088
CB DSNT SE MOV SE T03060167 10328 20300 53002=

Extra information for KMSP:More info

Metar Taf Metar & Taf Last 4 Metars F.Rules Stats Wind Profile Meteogram Temp Stats Airport Information Weather charts Add Link Nearby VenuesMetar ALERT Operation Metar Decoded Social comments

AIRNAV info for KMSP